sensor_id;sensor_type;location;lat;lon;timestamp;temperature;humidity
6520;DHT22;3293;51.690;5.982;2023-03-14T00:02:54;11.60;99.90
6520;DHT22;3293;51.690;5.982;2023-03-14T00:07:54;11.60;99.90
6520;DHT22;3293;51.690;5.982;2023-03-14T00:12:54;11.60;99.90
6520;DHT22;3293;51.690;5.982;2023-03-14T00:17:54;11.70;99.90
6520;DHT22;3293;51.690;5.982;2023-03-14T00:22:54;11.70;99.90
6520;DHT22;3293;51.690;5.982;2023-03-14T00:27:54;11.70;99.90
6520;DHT22;3293;51.690;5.982;2023-03-14T00:32:56;11.70;99.90
6520;DHT22;3293;51.690;5.982;2023-03-14T00:37:56;11.60;99.90
6520;DHT22;3293;51.690;5.982;2023-03-14T00:42:55;11.70;99.90
6520;DHT22;3293;51.690;5.982;2023-03-14T00:47:55;11.70;99.90
6520;DHT22;3293;51.690;5.982;2023-03-14T00:52:55;11.70;99.90
6520;DHT22;3293;51.690;5.982;2023-03-14T00:57:55;11.70;99.90
6520;DHT22;3293;51.690;5.982;2023-03-14T01:02:55;11.60;99.90
6520;DHT22;3293;51.690;5.982;2023-03-14T01:07:55;11.60;99.90
6520;DHT22;3293;51.690;5.982;2023-03-14T01:12:56;11.60;99.90
6520;DHT22;3293;51.690;5.982;2023-03-14T01:17:55;11.60;99.90
6520;DHT22;3293;51.690;5.982;2023-03-14T01:22:55;11.60;99.90
6520;DHT22;3293;51.690;5.982;2023-03-14T01:27:55;11.50;99.90
6520;DHT22;3293;51.690;5.982;2023-03-14T01:32:55;11.50;99.90
6520;DHT22;3293;51.690;5.982;2023-03-14T01:37:55;11.40;99.90
6520;DHT22;3293;51.690;5.982;2023-03-14T01:43:05;11.40;99.90
6520;DHT22;3293;51.690;5.982;2023-03-14T01:48:05;11.40;99.90
6520;DHT22;3293;51.690;5.982;2023-03-14T01:53:05;11.30;99.90
6520;DHT22;3293;51.690;5.982;2023-03-14T01:58:05;11.20;99.90
6520;DHT22;3293;51.690;5.982;2023-03-14T02:03:10;11.20;99.90
6520;DHT22;3293;51.690;5.982;2023-03-14T02:08:22;11.20;99.90
6520;DHT22;3293;51.690;5.982;2023-03-14T02:13:22;11.20;99.90
6520;DHT22;3293;51.690;5.982;2023-03-14T02:18:22;11.10;99.90
6520;DHT22;3293;51.690;5.982;2023-03-14T02:23:47;11.00;99.90
6520;DHT22;3293;51.690;5.982;2023-03-14T02:28:51;11.10;99.90
6520;DHT22;3293;51.690;5.982;2023-03-14T02:33:54;11.10;99.90
6520;DHT22;3293;51.690;5.982;2023-03-14T02:39:11;11.10;99.90
6520;DHT22;3293;51.690;5.982;2023-03-14T02:44:13;11.10;99.90
6520;DHT22;3293;51.690;5.982;2023-03-14T02:49:14;11.00;99.90
6520;DHT22;3293;51.690;5.982;2023-03-14T02:54:15;11.00;99.90
6520;DHT22;3293;51.690;5.982;2023-03-14T02:59:15;11.00;99.90
6520;DHT22;3293;51.690;5.982;2023-03-14T03:04:15;11.00;99.90
6520;DHT22;3293;51.690;5.982;2023-03-14T03:09:15;11.00;99.90
6520;DHT22;3293;51.690;5.982;2023-03-14T03:14:17;10.80;99.90
6520;DHT22;3293;51.690;5.982;2023-03-14T03:19:17;10.80;99.90
6520;DHT22;3293;51.690;5.982;2023-03-14T03:24:17;10.70;99.90
6520;DHT22;3293;51.690;5.982;2023-03-14T03:29:17;10.70;99.90
6520;DHT22;3293;51.690;5.982;2023-03-14T03:34:17;10.60;99.90
6520;DHT22;3293;51.690;5.982;2023-03-14T03:39:17;10.60;99.90
6520;DHT22;3293;51.690;5.982;2023-03-14T03:44:17;10.60;99.90
6520;DHT22;3293;51.690;5.982;2023-03-14T03:49:17;10.60;99.90
6520;DHT22;3293;51.690;5.982;2023-03-14T03:54:17;10.60;99.90
6520;DHT22;3293;51.690;5.982;2023-03-14T03:59:17;10.50;99.90
6520;DHT22;3293;51.690;5.982;2023-03-14T04:04:17;10.60;99.90
6520;DHT22;3293;51.690;5.982;2023-03-14T04:09:17;10.60;99.90
6520;DHT22;3293;51.690;5.982;2023-03-14T04:14:16;10.50;99.90
6520;DHT22;3293;51.690;5.982;2023-03-14T04:19:17;10.50;99.90
6520;DHT22;3293;51.690;5.982;2023-03-14T04:24:17;10.40;99.90
6520;DHT22;3293;51.690;5.982;2023-03-14T04:29:17;10.40;99.90
6520;DHT22;3293;51.690;5.982;2023-03-14T04:34:16;10.40;99.90
6520;DHT22;3293;51.690;5.982;2023-03-14T04:39:16;10.30;99.90
6520;DHT22;3293;51.690;5.982;2023-03-14T04:44:16;10.30;99.90
6520;DHT22;3293;51.690;5.982;2023-03-14T04:49:16;10.30;99.90
6520;DHT22;3293;51.690;5.982;2023-03-14T04:54:17;10.10;99.90
6520;DHT22;3293;51.690;5.982;2023-03-14T04:59:16;10.00;99.90
6520;DHT22;3293;51.690;5.982;2023-03-14T05:04:16;9.90;99.90
6520;DHT22;3293;51.690;5.982;2023-03-14T05:09:16;10.00;99.90
6520;DHT22;3293;51.690;5.982;2023-03-14T05:14:16;9.90;99.90
6520;DHT22;3293;51.690;5.982;2023-03-14T05:19:16;9.90;99.90
6520;DHT22;3293;51.690;5.982;2023-03-14T05:24:16;9.80;99.90
6520;DHT22;3293;51.690;5.982;2023-03-14T05:29:16;9.80;99.90
6520;DHT22;3293;51.690;5.982;2023-03-14T05:34:16;9.90;99.90
6520;DHT22;3293;51.690;5.982;2023-03-14T05:39:16;9.90;99.90
6520;DHT22;3293;51.690;5.982;2023-03-14T05:44:16;9.80;99.90
6520;DHT22;3293;51.690;5.982;2023-03-14T05:49:16;9.70;99.90
6520;DHT22;3293;51.690;5.982;2023-03-14T05:54:16;9.70;99.90
6520;DHT22;3293;51.690;5.982;2023-03-14T05:59:16;9.60;99.90
6520;DHT22;3293;51.690;5.982;2023-03-14T06:04:16;9.50;99.90
6520;DHT22;3293;51.690;5.982;2023-03-14T06:09:16;9.50;99.90
6520;DHT22;3293;51.690;5.982;2023-03-14T06:14:16;9.50;99.90
6520;DHT22;3293;51.690;5.982;2023-03-14T06:19:16;9.50;99.90
6520;DHT22;3293;51.690;5.982;2023-03-14T06:24:17;9.50;99.90
6520;DHT22;3293;51.690;5.982;2023-03-14T06:29:17;9.60;99.90
6520;DHT22;3293;51.690;5.982;2023-03-14T06:34:17;9.70;99.90
6520;DHT22;3293;51.690;5.982;2023-03-14T06:39:17;9.90;99.90
6520;DHT22;3293;51.690;5.982;2023-03-14T06:44:17;9.90;99.90
6520;DHT22;3293;51.690;5.982;2023-03-14T06:49:17;10.00;99.90
6520;DHT22;3293;51.690;5.982;2023-03-14T06:54:17;10.10;99.90
6520;DHT22;3293;51.690;5.982;2023-03-14T06:59:17;10.10;99.90
6520;DHT22;3293;51.690;5.982;2023-03-14T07:04:17;10.10;99.90
6520;DHT22;3293;51.690;5.982;2023-03-14T07:09:17;10.10;99.90
6520;DHT22;3293;51.690;5.982;2023-03-14T07:14:17;10.20;99.90
6520;DHT22;3293;51.690;5.982;2023-03-14T07:19:17;10.30;99.90
6520;DHT22;3293;51.690;5.982;2023-03-14T07:24:17;10.40;99.90
6520;DHT22;3293;51.690;5.982;2023-03-14T07:29:17;10.60;99.90
6520;DHT22;3293;51.690;5.982;2023-03-14T07:34:17;10.80;99.90
6520;DHT22;3293;51.690;5.982;2023-03-14T07:39:17;10.90;99.90
6520;DHT22;3293;51.690;5.982;2023-03-14T07:44:17;10.80;99.90
6520;DHT22;3293;51.690;5.982;2023-03-14T07:49:17;10.70;99.90
6520;DHT22;3293;51.690;5.982;2023-03-14T07:54:17;10.70;99.90
6520;DHT22;3293;51.690;5.982;2023-03-14T07:59:17;10.50;99.90
6520;DHT22;3293;51.690;5.982;2023-03-14T08:04:17;10.00;99.90
6520;DHT22;3293;51.690;5.982;2023-03-14T08:09:17;9.50;99.90
6520;DHT22;3293;51.690;5.982;2023-03-14T08:14:17;9.20;99.90
6520;DHT22;3293;51.690;5.982;2023-03-14T08:19:17;9.10;99.90
6520;DHT22;3293;51.690;5.982;2023-03-14T08:24:17;8.90;99.90
6520;DHT22;3293;51.690;5.982;2023-03-14T08:29:16;8.70;99.90
6520;DHT22;3293;51.690;5.982;2023-03-14T08:34:16;8.50;99.90
6520;DHT22;3293;51.690;5.982;2023-03-14T08:39:16;8.50;99.90
6520;DHT22;3293;51.690;5.982;2023-03-14T08:44:16;8.50;99.90
6520;DHT22;3293;51.690;5.982;2023-03-14T08:49:16;8.50;99.90
6520;DHT22;3293;51.690;5.982;2023-03-14T08:54:16;8.60;99.90
6520;DHT22;3293;51.690;5.982;2023-03-14T08:59:16;8.90;99.90
6520;DHT22;3293;51.690;5.982;2023-03-14T09:04:17;9.00;99.90
6520;DHT22;3293;51.690;5.982;2023-03-14T09:09:16;9.10;99.90
6520;DHT22;3293;51.690;5.982;2023-03-14T09:14:16;9.20;99.90
6520;DHT22;3293;51.690;5.982;2023-03-14T09:19:16;9.10;99.90
6520;DHT22;3293;51.690;5.982;2023-03-14T09:24:17;8.90;99.90
6520;DHT22;3293;51.690;5.982;2023-03-14T09:29:17;8.60;99.90
6520;DHT22;3293;51.690;5.982;2023-03-14T09:34:18;8.20;99.90
6520;DHT22;3293;51.690;5.982;2023-03-14T09:39:18;8.10;99.90
6520;DHT22;3293;51.690;5.982;2023-03-14T09:44:23;8.10;99.90
6520;DHT22;3293;51.690;5.982;2023-03-14T09:49:28;8.10;99.90
6520;DHT22;3293;51.690;5.982;2023-03-14T09:54:35;8.00;99.90
6520;DHT22;3293;51.690;5.982;2023-03-14T09:59:36;8.10;99.90
6520;DHT22;3293;51.690;5.982;2023-03-14T10:04:36;8.10;99.90
6520;DHT22;3293;51.690;5.982;2023-03-14T10:09:43;8.30;99.90
6520;DHT22;3293;51.690;5.982;2023-03-14T10:14:51;8.60;99.90
6520;DHT22;3293;51.690;5.982;2023-03-14T10:19:56;8.60;99.90
6520;DHT22;3293;51.690;5.982;2023-03-14T10:25:05;8.60;99.90
6520;DHT22;3293;51.690;5.982;2023-03-14T10:30:07;8.80;99.90
6520;DHT22;3293;51.690;5.982;2023-03-14T10:40:13;8.70;99.90
6520;DHT22;3293;51.690;5.982;2023-03-14T10:45:35;8.50;99.90
6520;DHT22;3293;51.690;5.982;2023-03-14T10:50:36;8.30;99.90
6520;DHT22;3293;51.690;5.982;2023-03-14T10:55:41;8.50;99.90
6520;DHT22;3293;51.690;5.982;2023-03-14T11:00:41;8.70;99.90
6520;DHT22;3293;51.690;5.982;2023-03-14T11:11:19;8.90;99.90
6520;DHT22;3293;51.690;5.982;2023-03-14T11:21:33;9.50;99.90
6520;DHT22;3293;51.690;5.982;2023-03-14T11:26:54;9.60;99.90
6520;DHT22;3293;51.690;5.982;2023-03-14T11:32:00;9.60;99.90
6520;DHT22;3293;51.690;5.982;2023-03-14T11:37:05;9.60;99.90
6520;DHT22;3293;51.690;5.982;2023-03-14T11:42:12;9.20;99.90
6520;DHT22;3293;51.690;5.982;2023-03-14T11:47:33;8.40;99.90
6520;DHT22;3293;51.690;5.982;2023-03-14T11:52:56;8.20;99.90
6520;DHT22;3293;51.690;5.982;2023-03-14T11:58:26;8.40;99.90
6520;DHT22;3293;51.690;5.982;2023-03-14T12:04:18;8.60;99.90
6520;DHT22;3293;51.690;5.982;2023-03-14T12:08:58;8.80;99.90
6520;DHT22;3293;51.690;5.982;2023-03-14T12:13:58;8.30;99.90
6520;DHT22;3293;51.690;5.982;2023-03-14T12:24:31;7.90;99.90
6520;DHT22;3293;51.690;5.982;2023-03-14T12:29:33;8.30;99.90
6520;DHT22;3293;51.690;5.982;2023-03-14T12:34:55;8.30;99.90
6520;DHT22;3293;51.690;5.982;2023-03-14T12:40:13;8.40;99.90
6520;DHT22;3293;51.690;5.982;2023-03-14T12:45:28;8.30;99.90
6520;DHT22;3293;51.690;5.982;2023-03-14T12:50:56;8.40;99.90
6520;DHT22;3293;51.690;5.982;2023-03-14T12:55:57;8.70;99.90
6520;DHT22;3293;51.690;5.982;2023-03-14T13:01:03;8.70;98.20
6520;DHT22;3293;51.690;5.982;2023-03-14T13:06:04;8.80;99.90
6520;DHT22;3293;51.690;5.982;2023-03-14T13:11:14;9.00;87.40
6520;DHT22;3293;51.690;5.982;2023-03-14T13:16:17;9.10;88.40
6520;DHT22;3293;51.690;5.982;2023-03-14T13:21:20;9.10;94.30
6520;DHT22;3293;51.690;5.982;2023-03-14T13:26:32;9.40;87.30
6520;DHT22;3293;51.690;5.982;2023-03-14T13:31:32;9.40;86.20
6520;DHT22;3293;51.690;5.982;2023-03-14T13:36:36;9.20;58.40
6520;DHT22;3293;51.690;5.982;2023-03-14T13:41:36;8.90;64.00
6520;DHT22;3293;51.690;5.982;2023-03-14T13:46:36;8.90;65.40
6520;DHT22;3293;51.690;5.982;2023-03-14T13:51:39;8.90;75.50
6520;DHT22;3293;51.690;5.982;2023-03-14T13:56:39;8.90;63.20
6520;DHT22;3293;51.690;5.982;2023-03-14T14:01:40;8.90;59.50
6520;DHT22;3293;51.690;5.982;2023-03-14T14:06:46;8.90;55.20
6520;DHT22;3293;51.690;5.982;2023-03-14T14:12:00;8.80;64.20
6520;DHT22;3293;51.690;5.982;2023-03-14T14:17:04;8.80;54.10
6520;DHT22;3293;51.690;5.982;2023-03-14T14:22:05;8.90;50.60
6520;DHT22;3293;51.690;5.982;2023-03-14T14:27:18;8.80;52.70
6520;DHT22;3293;51.690;5.982;2023-03-14T14:32:20;8.80;51.80
6520;DHT22;3293;51.690;5.982;2023-03-14T14:37:20;8.90;46.40
6520;DHT22;3293;51.690;5.982;2023-03-14T14:42:24;8.80;51.70
6520;DHT22;3293;51.690;5.982;2023-03-14T14:47:27;8.70;54.20
6520;DHT22;3293;51.690;5.982;2023-03-14T14:52:44;8.80;51.00
6520;DHT22;3293;51.690;5.982;2023-03-14T14:57:51;8.60;46.30
6520;DHT22;3293;51.690;5.982;2023-03-14T15:02:53;8.40;47.80
6520;DHT22;3293;51.690;5.982;2023-03-14T15:07:54;8.30;51.20
6520;DHT22;3293;51.690;5.982;2023-03-14T15:12:54;8.40;50.80
6520;DHT22;3293;51.690;5.982;2023-03-14T15:17:54;8.50;54.10
6520;DHT22;3293;51.690;5.982;2023-03-14T15:22:55;8.60;58.10
6520;DHT22;3293;51.690;5.982;2023-03-14T15:27:54;8.80;59.90
6520;DHT22;3293;51.690;5.982;2023-03-14T15:32:54;8.60;51.40
6520;DHT22;3293;51.690;5.982;2023-03-14T15:37:54;8.50;56.30
6520;DHT22;3293;51.690;5.982;2023-03-14T15:42:54;8.40;62.70
6520;DHT22;3293;51.690;5.982;2023-03-14T15:47:54;8.20;67.20
6520;DHT22;3293;51.690;5.982;2023-03-14T15:52:54;8.20;65.10
6520;DHT22;3293;51.690;5.982;2023-03-14T15:57:55;8.10;58.80
6520;DHT22;3293;51.690;5.982;2023-03-14T16:02:55;8.00;59.00
6520;DHT22;3293;51.690;5.982;2023-03-14T16:07:55;7.90;66.70
6520;DHT22;3293;51.690;5.982;2023-03-14T16:12:55;7.70;66.70
6520;DHT22;3293;51.690;5.982;2023-03-14T16:17:55;7.70;64.70
6520;DHT22;3293;51.690;5.982;2023-03-14T16:22:55;7.60;62.20
6520;DHT22;3293;51.690;5.982;2023-03-14T16:27:55;7.60;53.90
6520;DHT22;3293;51.690;5.982;2023-03-14T16:32:55;7.50;55.30
6520;DHT22;3293;51.690;5.982;2023-03-14T16:37:59;7.50;58.40
6520;DHT22;3293;51.690;5.982;2023-03-14T16:43:00;7.40;58.90
6520;DHT22;3293;51.690;5.982;2023-03-14T16:48:02;7.30;59.70
6520;DHT22;3293;51.690;5.982;2023-03-14T16:53:02;7.20;68.90
6520;DHT22;3293;51.690;5.982;2023-03-14T16:58:02;7.30;66.10
6520;DHT22;3293;51.690;5.982;2023-03-14T17:03:03;7.10;65.40
6520;DHT22;3293;51.690;5.982;2023-03-14T17:08:03;7.00;72.60
6520;DHT22;3293;51.690;5.982;2023-03-14T17:13:03;6.90;75.10
6520;DHT22;3293;51.690;5.982;2023-03-14T17:18:04;6.80;71.50
6520;DHT22;3293;51.690;5.982;2023-03-14T17:23:04;6.70;78.70
6520;DHT22;3293;51.690;5.982;2023-03-14T17:28:04;6.60;82.60
6520;DHT22;3293;51.690;5.982;2023-03-14T17:33:04;6.50;83.70
6520;DHT22;3293;51.690;5.982;2023-03-14T17:38:05;6.40;86.40
6520;DHT22;3293;51.690;5.982;2023-03-14T17:43:05;6.40;89.60
6520;DHT22;3293;51.690;5.982;2023-03-14T17:48:05;6.20;91.80
6520;DHT22;3293;51.690;5.982;2023-03-14T17:53:05;6.10;95.90
6520;DHT22;3293;51.690;5.982;2023-03-14T17:58:05;6.00;97.90
6520;DHT22;3293;51.690;5.982;2023-03-14T18:03:04;5.90;98.30
6520;DHT22;3293;51.690;5.982;2023-03-14T18:08:06;5.90;99.90
6520;DHT22;3293;51.690;5.982;2023-03-14T18:13:08;5.80;99.90
6520;DHT22;3293;51.690;5.982;2023-03-14T18:18:07;5.80;99.90
6520;DHT22;3293;51.690;5.982;2023-03-14T18:23:07;5.80;99.90
6520;DHT22;3293;51.690;5.982;2023-03-14T18:28:07;5.80;99.90
6520;DHT22;3293;51.690;5.982;2023-03-14T18:33:07;5.60;99.90
6520;DHT22;3293;51.690;5.982;2023-03-14T18:38:07;5.50;99.90
6520;DHT22;3293;51.690;5.982;2023-03-14T18:43:07;5.40;99.90
6520;DHT22;3293;51.690;5.982;2023-03-14T18:48:07;5.30;99.90
6520;DHT22;3293;51.690;5.982;2023-03-14T18:53:07;5.20;99.90
6520;DHT22;3293;51.690;5.982;2023-03-14T18:58:07;5.00;99.90
6520;DHT22;3293;51.690;5.982;2023-03-14T19:03:07;4.90;99.90
6520;DHT22;3293;51.690;5.982;2023-03-14T19:08:07;4.70;99.90
6520;DHT22;3293;51.690;5.982;2023-03-14T19:13:07;4.70;99.90
6520;DHT22;3293;51.690;5.982;2023-03-14T19:18:07;4.60;99.90
6520;DHT22;3293;51.690;5.982;2023-03-14T19:23:10;4.40;99.90
6520;DHT22;3293;51.690;5.982;2023-03-14T19:28:13;4.20;99.90
6520;DHT22;3293;51.690;5.982;2023-03-14T19:33:14;4.10;99.90
6520;DHT22;3293;51.690;5.982;2023-03-14T19:38:15;4.00;99.90
6520;DHT22;3293;51.690;5.982;2023-03-14T19:43:15;3.80;99.90
6520;DHT22;3293;51.690;5.982;2023-03-14T19:48:16;3.70;99.90
6520;DHT22;3293;51.690;5.982;2023-03-14T19:53:16;3.50;99.90
6520;DHT22;3293;51.690;5.982;2023-03-14T19:58:16;3.50;99.90
6520;DHT22;3293;51.690;5.982;2023-03-14T20:03:16;3.30;99.90
6520;DHT22;3293;51.690;5.982;2023-03-14T20:08:16;3.20;99.90
6520;DHT22;3293;51.690;5.982;2023-03-14T20:13:16;3.10;99.90
6520;DHT22;3293;51.690;5.982;2023-03-14T20:18:16;3.10;99.90
6520;DHT22;3293;51.690;5.982;2023-03-14T20:23:16;3.10;99.90
6520;DHT22;3293;51.690;5.982;2023-03-14T20:28:16;3.10;99.90
6520;DHT22;3293;51.690;5.982;2023-03-14T20:33:16;3.00;99.90
6520;DHT22;3293;51.690;5.982;2023-03-14T20:38:18;2.90;99.90
6520;DHT22;3293;51.690;5.982;2023-03-14T20:43:18;2.90;99.90
6520;DHT22;3293;51.690;5.982;2023-03-14T20:48:18;2.90;99.90
6520;DHT22;3293;51.690;5.982;2023-03-14T20:53:19;2.90;99.90
6520;DHT22;3293;51.690;5.982;2023-03-14T20:58:19;2.90;99.90
6520;DHT22;3293;51.690;5.982;2023-03-14T21:03:19;3.00;99.90
6520;DHT22;3293;51.690;5.982;2023-03-14T21:08:22;3.00;99.90
6520;DHT22;3293;51.690;5.982;2023-03-14T21:13:22;3.00;99.90
6520;DHT22;3293;51.690;5.982;2023-03-14T21:18:23;3.20;99.90
6520;DHT22;3293;51.690;5.982;2023-03-14T21:23:23;3.30;99.90
6520;DHT22;3293;51.690;5.982;2023-03-14T21:28:25;3.60;99.90
6520;DHT22;3293;51.690;5.982;2023-03-14T21:33:25;3.70;99.90
6520;DHT22;3293;51.690;5.982;2023-03-14T21:38:26;3.80;99.90
6520;DHT22;3293;51.690;5.982;2023-03-14T21:43:27;3.90;99.90
6520;DHT22;3293;51.690;5.982;2023-03-14T21:48:27;4.00;99.90
6520;DHT22;3293;51.690;5.982;2023-03-14T21:53:27;4.30;99.90
6520;DHT22;3293;51.690;5.982;2023-03-14T21:58:29;4.30;99.90
6520;DHT22;3293;51.690;5.982;2023-03-14T22:03:29;4.30;99.90
6520;DHT22;3293;51.690;5.982;2023-03-14T22:08:32;4.30;99.90
6520;DHT22;3293;51.690;5.982;2023-03-14T22:13:32;4.30;99.90
6520;DHT22;3293;51.690;5.982;2023-03-14T22:18:32;4.40;99.90
6520;DHT22;3293;51.690;5.982;2023-03-14T22:23:32;4.30;99.90
6520;DHT22;3293;51.690;5.982;2023-03-14T22:28:32;3.80;99.90
6520;DHT22;3293;51.690;5.982;2023-03-14T22:33:32;3.40;99.90
6520;DHT22;3293;51.690;5.982;2023-03-14T22:38:31;3.10;99.90
6520;DHT22;3293;51.690;5.982;2023-03-14T22:43:31;3.00;99.90
6520;DHT22;3293;51.690;5.982;2023-03-14T22:48:32;2.90;99.90
6520;DHT22;3293;51.690;5.982;2023-03-14T22:53:32;2.80;99.90
6520;DHT22;3293;51.690;5.982;2023-03-14T22:58:32;2.80;99.90
6520;DHT22;3293;51.690;5.982;2023-03-14T23:03:33;2.90;99.90
6520;DHT22;3293;51.690;5.982;2023-03-14T23:08:33;2.90;99.90
6520;DHT22;3293;51.690;5.982;2023-03-14T23:13:34;2.90;99.90
6520;DHT22;3293;51.690;5.982;2023-03-14T23:18:36;3.00;99.90
6520;DHT22;3293;51.690;5.982;2023-03-14T23:23:37;3.20;99.90
6520;DHT22;3293;51.690;5.982;2023-03-14T23:28:37;3.50;99.90
6520;DHT22;3293;51.690;5.982;2023-03-14T23:33:37;3.60;99.90
6520;DHT22;3293;51.690;5.982;2023-03-14T23:38:39;3.60;99.90
6520;DHT22;3293;51.690;5.982;2023-03-14T23:43:41;3.70;99.90
6520;DHT22;3293;51.690;5.982;2023-03-14T23:48:41;3.60;99.90
6520;DHT22;3293;51.690;5.982;2023-03-14T23:53:46;3.50;99.90
6520;DHT22;3293;51.690;5.982;2023-03-14T23:58:46;3.40;99.90
